ボードー の空港の天気 - METARとTAF

Bodo Vi ( ENBO / BOO ) - ノルウェー ヌールラン県ボードー
飛行場実況気象(Metar)
観測時間02/17 15:50 CET (02/17 14:50 UTC)
風向・風速東南東 3m/s
視程10km以上
天気現象
全天の4割程度の雲 雲底高度 1370m
全天の8割程度の雲 雲底高度 5180m
気温1℃
湿度64%
気圧1014hPa
METARENBO 171450Z 11006KT 9999 SCT045 BKN170 01/M05 Q1014 NOSIG
過去の天気等 Google飛行場航空写真 Wunderground天気予報

過去48時間のMETAR

飛行場予報(TAF)
発表時間: -
18日4時 CET ~ 18日10時 CET に一時的に
風向・風速東 9m/s
視程2000m
天気現象雪雨
全天を覆う雲 鉛直視程 370m
18日8時 CET ~ 18日10時 CET に徐々に
風向・風速南西 8m/s
18日10時 CET ~ 18日13時 CET に一時的に
風向・風速南西 13m/s 瞬間風速 18m/s
天気現象しゅう雨
全天の8割程度の積乱雲 雲底高度 430m
TAF ENBO 1712/1812 10008KT 9999 FEW015TCU SCT030
TEMPO 1803/1809 10018KT 2000 SNRA VV012
BECMG 1807/1809 23015KT
TEMPO 1809/1812 23025G35KT SHRA BKN014CB